createdAt,value
2018-02-17T00:02:19.411Z,83.94
2018-02-17T00:04:46.978Z,84.12
2018-02-17T00:07:14.532Z,85.46
2018-02-17T00:09:42.144Z,86.26
2018-02-17T00:12:09.728Z,86.11
2018-02-17T00:14:37.280Z,84.73
2018-02-17T00:17:04.879Z,84.44
2018-02-17T00:19:32.443Z,84.45
2018-02-17T00:21:59.997Z,84.27
2018-02-17T00:24:27.626Z,84.89
2018-02-17T00:26:55.209Z,85.49
2018-02-17T00:29:22.796Z,85.76
2018-02-17T00:31:50.491Z,86.13
2018-02-17T00:34:18.038Z,86.27
2018-02-17T00:36:46.344Z,86.47
2018-02-17T00:39:14.038Z,86.57
2018-02-17T00:41:41.593Z,86.94
2018-02-17T00:44:09.166Z,87.41
2018-02-17T00:46:36.860Z,87.28
2018-02-17T00:49:04.415Z,86.09
2018-02-17T00:51:31.970Z,84.76
2018-02-17T00:53:59.658Z,84.31
2018-02-17T00:56:27.204Z,83.26
2018-02-17T00:58:55.038Z,84.06
2018-02-17T01:01:23.351Z,85.04
2018-02-17T01:03:50.912Z,85.76
2018-02-17T01:06:18.479Z,85.94
2018-02-17T01:08:46.171Z,85.58
2018-02-17T01:11:13.727Z,84.72
2018-02-17T01:13:41.271Z,84.54
2018-02-17T01:16:08.955Z,84.79
2018-02-17T01:18:36.511Z,84.18
2018-02-17T01:21:04.062Z,84.25
2018-02-17T01:23:31.645Z,83.56
2018-02-17T01:25:59.241Z,84.06
2018-02-17T01:28:27.802Z,83.03
2018-02-17T01:30:55.633Z,83.47
2018-02-17T01:33:23.191Z,83.73
2018-02-17T01:35:50.751Z,83.70
2018-02-17T01:38:18.642Z,83.45
2018-02-17T01:40:46.202Z,83.26
2018-02-17T01:43:13.764Z,83.08
2018-02-17T01:45:41.383Z,83.80
2018-02-17T01:48:08.938Z,84.20
2018-02-17T01:50:36.499Z,83.58
2018-02-17T01:53:05.181Z,83.93
2018-02-17T01:55:32.748Z,84.96
2018-02-17T01:58:00.322Z,85.52
2018-02-17T02:00:27.916Z,84.85
2018-02-17T02:02:55.480Z,84.19
2018-02-17T02:05:23.040Z,83.66
2018-02-17T02:07:51.429Z,82.93
2018-02-17T02:10:19.018Z,82.84
2018-02-17T02:12:46.676Z,82.87
2018-02-17T02:15:14.414Z,82.36
2018-02-17T02:17:41.968Z,83.29
2018-02-17T02:20:09.516Z,83.11
2018-02-17T02:22:37.089Z,83.01
2018-02-17T02:25:04.648Z,84.05
2018-02-17T02:27:32.186Z,83.76
2018-02-17T02:29:59.762Z,83.64
2018-02-17T02:32:27.342Z,84.06
2018-02-17T02:34:54.898Z,83.56
2018-02-17T02:37:22.640Z,82.19
2018-02-17T02:39:50.196Z,82.45
2018-02-17T02:44:44.633Z,82.28
2018-02-17T02:47:12.190Z,82.20
2018-02-17T02:49:39.763Z,82.30
2018-02-17T02:52:07.369Z,83.09
2018-02-17T02:54:34.949Z,82.85
2018-02-17T02:57:02.506Z,82.66
2018-02-17T02:59:30.114Z,82.77
2018-02-17T03:01:57.667Z,82.78
2018-02-17T03:04:25.220Z,83.12
2018-02-17T03:06:52.903Z,83.89
2018-02-17T03:09:20.471Z,84.68
2018-02-17T03:11:48.027Z,85.36
2018-02-17T03:14:15.769Z,85.00
2018-02-17T03:16:43.328Z,84.91
2018-02-17T03:19:10.877Z,85.05
2018-02-17T03:21:38.517Z,84.92
2018-02-17T03:24:06.083Z,84.99
2018-02-17T03:26:33.634Z,84.47
2018-02-17T03:29:01.393Z,84.10
2018-02-17T03:31:28.947Z,83.28
2018-02-17T03:33:56.520Z,83.10
2018-02-17T03:36:24.203Z,82.61
2018-02-17T03:38:51.765Z,82.21
2018-02-17T03:41:19.321Z,81.60
2018-02-17T03:43:47.070Z,81.12
2018-02-17T03:46:14.627Z,80.67
2018-02-17T03:48:42.174Z,80.28
2018-02-17T03:51:09.751Z,79.96
2018-02-17T03:53:37.295Z,79.53
2018-02-17T03:56:04.859Z,79.55
2018-02-17T03:58:32.431Z,78.68
2018-02-17T04:00:59.973Z,78.35
2018-02-17T04:03:27.529Z,78.38
2018-02-17T04:05:55.130Z,78.55
2018-02-17T04:08:22.700Z,78.58
2018-02-17T04:10:50.263Z,79.08
2018-02-17T04:13:17.883Z,78.81
2018-02-17T04:15:45.445Z,78.70
2018-02-17T04:18:12.991Z,78.28
2018-02-17T04:20:40.677Z,78.28
2018-02-17T04:23:08.230Z,78.62
2018-02-17T04:25:35.790Z,78.94
2018-02-17T04:28:03.374Z,79.08
2018-02-17T04:30:30.927Z,79.05
2018-02-17T04:32:58.478Z,78.52
2018-02-17T04:35:26.173Z,78.68
2018-02-17T04:37:53.751Z,78.87
2018-02-17T04:40:21.323Z,78.83
2018-02-17T04:42:54.578Z,78.41
2018-02-17T04:45:22.151Z,78.81
2018-02-17T04:47:52.612Z,79.14
2018-02-17T04:50:25.926Z,79.27
2018-02-17T04:52:53.511Z,79.14
2018-02-17T04:55:23.851Z,78.94
2018-02-17T04:58:02.102Z,79.17
2018-02-17T05:00:35.569Z,79.11
2018-02-17T05:03:07.229Z,78.94
2018-02-17T05:05:37.315Z,79.43
2018-02-17T05:08:19.788Z,79.31
2018-02-17T05:10:47.373Z,79.41
2018-02-17T05:13:14.967Z,79.54
2018-02-17T05:15:42.673Z,79.31
2018-02-17T05:18:16.023Z,79.23
2018-02-17T05:20:55.755Z,78.72
2018-02-17T05:23:24.882Z,78.25
2018-02-17T05:25:56.251Z,77.83
2018-02-17T05:31:31.232Z,77.29
2018-02-17T05:34:02.238Z,76.73
2018-02-17T05:36:34.230Z,76.91
2018-02-17T05:39:04.700Z,76.62
2018-02-17T05:44:56.619Z,75.56
2018-02-17T05:47:25.605Z,74.90
2018-02-17T05:50:06.782Z,74.76
2018-02-17T05:52:34.506Z,73.98
2018-02-17T05:55:02.062Z,73.81
2018-02-17T05:57:29.632Z,73.93
2018-02-17T05:59:57.210Z,73.52
2018-02-17T06:02:24.799Z,73.26
2018-02-17T06:04:52.391Z,72.25
2018-02-17T06:07:20.293Z,73.35
2018-02-17T06:09:47.861Z,71.62
2018-02-17T06:12:15.410Z,71.27
2018-02-17T06:14:43.286Z,70.34
2018-02-17T06:17:10.844Z,71.24
2018-02-17T06:19:38.399Z,71.43
2018-02-17T06:22:05.986Z,71.83
2018-02-17T06:24:33.566Z,70.38
2018-02-17T06:27:01.137Z,70.43
2018-02-17T06:29:28.762Z,69.94
2018-02-17T06:31:56.313Z,69.35
2018-02-17T06:34:23.906Z,70.27
2018-02-17T06:36:51.507Z,69.73
2018-02-17T06:39:19.055Z,69.65
2018-02-17T06:41:46.636Z,68.49
2018-02-17T06:44:14.241Z,69.65
2018-02-17T06:46:41.823Z,69.13
2018-02-17T06:49:09.392Z,67.19
2018-02-17T06:51:36.971Z,63.79
2018-02-17T06:54:04.538Z,59.79
2018-02-17T06:56:32.124Z,58.66
2018-02-17T06:59:00.007Z,57.61
2018-02-17T07:01:27.582Z,54.48
2018-02-17T07:03:55.143Z,54.78
2018-02-17T07:06:22.733Z,56.02
2018-02-17T07:08:50.292Z,55.94
2018-02-17T07:11:17.848Z,55.49
2018-02-17T07:13:45.445Z,55.00
2018-02-17T07:16:13.009Z,54.97
2018-02-17T07:18:40.580Z,55.07
2018-02-17T07:21:08.346Z,54.10
2018-02-17T07:23:35.931Z,51.98
2018-02-17T07:26:03.509Z,47.58
2018-02-17T07:28:31.176Z,43.11
2018-02-17T07:30:58.747Z,43.86
2018-02-17T07:33:26.339Z,46.66
2018-02-17T07:35:54.229Z,47.58
2018-02-17T07:38:21.800Z,47.64
2018-02-17T07:40:49.357Z,48.34
2018-02-17T07:43:17.051Z,47.62
2018-02-17T07:45:44.627Z,48.92
2018-02-17T07:48:12.221Z,49.24
2018-02-17T07:50:39.956Z,50.31
2018-02-17T07:53:07.498Z,50.49
2018-02-17T07:55:35.070Z,50.58
2018-02-17T07:58:02.807Z,50.50
2018-02-17T08:00:30.362Z,52.50
2018-02-17T08:02:57.918Z,52.83
2018-02-17T08:05:25.574Z,53.94
2018-02-17T08:07:53.128Z,54.16
2018-02-17T08:10:20.693Z,54.66
2018-02-17T08:12:48.395Z,55.89
2018-02-17T08:15:16.023Z,55.55
2018-02-17T08:17:43.583Z,57.36
2018-02-17T08:20:11.275Z,58.64
2018-02-17T08:22:38.838Z,59.14
2018-02-17T08:25:06.397Z,60.60
2018-02-17T08:27:33.986Z,60.00
2018-02-17T08:30:01.545Z,60.02
2018-02-17T08:32:29.103Z,60.23
2018-02-17T08:34:56.702Z,60.06
2018-02-17T08:37:24.503Z,59.49
2018-02-17T08:39:52.055Z,58.61
2018-02-17T08:42:19.682Z,59.03
2018-02-17T08:44:47.225Z,58.49
2018-02-17T08:47:14.796Z,57.61
2018-02-17T08:49:42.388Z,58.67
2018-02-17T08:52:09.942Z,58.86
2018-02-17T08:54:37.495Z,59.23
2018-02-17T08:57:05.207Z,59.47
2018-02-17T08:59:32.770Z,60.12
2018-02-17T09:02:00.344Z,60.52
2018-02-17T09:04:27.932Z,58.73
2018-02-17T09:06:55.491Z,57.96
2018-02-17T09:09:23.056Z,60.23
2018-02-17T09:11:50.662Z,61.48
2018-02-17T09:14:18.229Z,61.56
2018-02-17T09:16:45.779Z,61.41
2018-02-17T09:19:13.388Z,62.25
2018-02-17T09:21:40.971Z,61.99
2018-02-17T09:24:08.533Z,61.73
2018-02-17T09:26:36.134Z,62.53
2018-02-17T09:29:03.707Z,63.00
2018-02-17T09:31:31.261Z,62.88
2018-02-17T09:33:58.872Z,62.23
2018-02-17T09:36:26.433Z,62.08
2018-02-17T09:38:53.995Z,62.35
2018-02-17T09:41:21.746Z,62.21
2018-02-17T09:43:49.326Z,62.18
2018-02-17T09:46:16.885Z,61.85
2018-02-17T09:48:44.627Z,62.84
2018-02-17T09:51:12.187Z,62.41
2018-02-17T09:53:39.759Z,62.32
2018-02-17T09:56:07.515Z,62.00
2018-02-17T09:58:35.070Z,62.43
2018-02-17T10:01:02.636Z,62.52
2018-02-17T10:03:30.334Z,62.66
2018-02-17T10:05:57.899Z,62.72
2018-02-17T10:08:25.451Z,61.92
2018-02-17T10:10:53.127Z,62.81
2018-02-17T10:13:20.675Z,62.71
2018-02-17T10:15:48.258Z,62.57
2018-02-17T10:18:16.002Z,62.35
2018-02-17T10:20:43.584Z,62.66
2018-02-17T10:23:11.144Z,62.77
2018-02-17T10:25:39.050Z,61.55
2018-02-17T10:28:06.704Z,61.64
2018-02-17T10:30:34.275Z,62.39
2018-02-17T10:33:01.876Z,62.00
2018-02-17T10:35:29.498Z,62.28
2018-02-17T10:37:57.020Z,63.10
2018-02-17T10:40:24.638Z,62.97
2018-02-17T10:42:52.216Z,62.34
2018-02-17T10:45:19.761Z,62.49
2018-02-17T10:47:47.339Z,62.08
2018-02-17T10:50:14.940Z,62.17
2018-02-17T10:52:42.497Z,62.64
2018-02-17T10:55:10.100Z,62.07
2018-02-17T10:57:37.659Z,62.46
2018-02-17T11:00:05.270Z,63.37
2018-02-17T11:02:32.981Z,62.17
2018-02-17T11:05:00.551Z,60.90
2018-02-17T11:07:28.140Z,60.75
2018-02-17T11:09:56.032Z,62.82
2018-02-17T11:12:23.690Z,62.19
2018-02-17T11:14:51.246Z,60.77
2018-02-17T11:17:19.280Z,60.13
2018-02-17T11:19:46.837Z,61.17
2018-02-17T11:22:14.406Z,60.72
2018-02-17T11:24:42.147Z,61.18
2018-02-17T11:27:09.704Z,61.51
2018-02-17T11:29:37.263Z,59.38
2018-02-17T11:32:04.871Z,60.48
2018-02-17T11:34:32.478Z,60.23
2018-02-17T11:37:00.031Z,59.68
2018-02-17T11:39:27.618Z,58.43
2018-02-17T11:41:55.220Z,59.81
2018-02-17T11:44:22.788Z,57.46
2018-02-17T11:46:50.391Z,59.94
2018-02-17T11:49:17.967Z,59.29
2018-02-17T11:51:45.581Z,57.61
2018-02-17T11:54:13.197Z,57.13
2018-02-17T11:56:40.820Z,57.60
2018-02-17T11:59:08.382Z,57.09
2018-02-17T12:01:36.096Z,57.81
2018-02-17T12:04:03.677Z,57.42
2018-02-17T12:06:31.282Z,57.69
2018-02-17T12:08:58.887Z,58.03
2018-02-17T12:11:26.457Z,55.32
2018-02-17T12:13:54.043Z,55.92
2018-02-17T12:16:21.695Z,57.23
2018-02-17T12:18:49.267Z,56.04
2018-02-17T12:21:16.898Z,54.43
2018-02-17T12:23:44.607Z,55.67
2018-02-17T12:26:12.197Z,55.97
2018-02-17T12:28:39.782Z,56.65
2018-02-17T12:31:07.403Z,56.09
2018-02-17T12:33:35.016Z,55.63
2018-02-17T12:36:02.588Z,56.16
2018-02-17T12:38:30.188Z,55.45
2018-02-17T12:40:57.756Z,55.60
2018-02-17T12:43:25.316Z,54.75
2018-02-17T12:45:53.076Z,54.47
2018-02-17T12:48:20.631Z,54.83
2018-02-17T12:50:48.225Z,55.88
2018-02-17T12:53:16.109Z,55.85
2018-02-17T12:55:43.719Z,55.70
2018-02-17T12:58:11.295Z,55.24
2018-02-17T13:00:39.045Z,56.12
2018-02-17T13:03:06.602Z,54.95
2018-02-17T13:05:34.178Z,55.25
2018-02-17T13:08:01.947Z,53.20
2018-02-17T13:10:29.537Z,54.69
2018-02-17T13:12:57.114Z,54.71
2018-02-17T13:15:24.804Z,54.08
2018-02-17T13:17:52.421Z,53.38
2018-02-17T13:20:20.038Z,52.92
2018-02-17T13:22:47.744Z,53.30
2018-02-17T13:25:15.353Z,52.99
2018-02-17T13:27:42.914Z,53.29
2018-02-17T13:30:10.531Z,53.84
2018-02-17T13:32:38.131Z,54.32
2018-02-17T13:35:05.688Z,54.43
2018-02-17T13:37:33.455Z,54.27
2018-02-17T13:40:01.034Z,54.22
2018-02-17T13:42:28.613Z,55.47
2018-02-17T13:44:56.234Z,54.41
2018-02-17T13:47:23.804Z,54.78
2018-02-17T13:49:51.367Z,54.96
2018-02-17T13:52:18.971Z,54.68
2018-02-17T13:54:46.534Z,55.20
2018-02-17T13:57:14.119Z,56.04
2018-02-17T13:59:41.935Z,55.35
2018-02-17T14:02:09.535Z,55.84
2018-02-17T14:04:37.109Z,55.12
2018-02-17T14:07:04.827Z,55.27
2018-02-17T14:09:32.459Z,55.72
2018-02-17T14:12:00.040Z,55.96
2018-02-17T14:14:27.717Z,55.23
2018-02-17T14:16:55.323Z,55.67
2018-02-17T14:19:22.890Z,55.73
2018-02-17T14:21:50.647Z,56.50
2018-02-17T14:24:18.224Z,57.00
2018-02-17T14:26:45.805Z,57.28
2018-02-17T14:29:13.557Z,57.62
2018-02-17T14:31:41.128Z,58.14
2018-02-17T14:34:08.691Z,58.42
2018-02-17T14:36:36.284Z,58.32
2018-02-17T14:39:03.930Z,58.42
2018-02-17T14:41:31.505Z,58.76
2018-02-17T14:43:59.143Z,58.87
2018-02-17T14:46:26.711Z,59.45
2018-02-17T14:48:54.310Z,59.41
2018-02-17T14:51:22.075Z,59.36
2018-02-17T14:53:49.673Z,59.18
2018-02-17T14:56:17.240Z,59.83
2018-02-17T14:58:45.194Z,61.02
2018-02-17T15:01:12.748Z,61.35
2018-02-17T15:03:40.336Z,61.57
2018-02-17T15:06:07.940Z,61.68
2018-02-17T15:08:35.514Z,62.20
2018-02-17T15:11:03.080Z,62.88
2018-02-17T15:13:30.671Z,63.21
2018-02-17T15:15:58.240Z,63.41
2018-02-17T15:18:25.808Z,63.33
2018-02-17T15:20:53.548Z,63.99
2018-02-17T15:23:21.125Z,63.79
2018-02-17T15:25:48.700Z,63.98
2018-02-17T15:28:16.403Z,64.18
2018-02-17T15:30:44.171Z,64.35
2018-02-17T15:33:11.733Z,64.74
2018-02-17T15:35:39.355Z,64.83
2018-02-17T15:38:06.935Z,65.42
2018-02-17T15:40:34.492Z,65.69
2018-02-17T15:43:02.076Z,65.74
2018-02-17T15:45:29.630Z,66.30
2018-02-17T15:47:57.183Z,66.49
2018-02-17T15:50:24.929Z,66.51
2018-02-17T15:52:52.487Z,66.19
2018-02-17T15:55:20.059Z,66.42
2018-02-17T15:57:47.946Z,66.20
2018-02-17T16:00:16.652Z,66.87
2018-02-17T16:02:44.224Z,66.50
2018-02-17T16:05:11.816Z,66.22
2018-02-17T16:07:39.367Z,66.37
2018-02-17T16:10:06.954Z,66.87
2018-02-17T16:12:34.575Z,67.23
2018-02-17T16:15:02.129Z,67.51
2018-02-17T16:17:29.712Z,68.02
2018-02-17T16:19:57.325Z,68.28
2018-02-17T16:22:24.931Z,68.26
2018-02-17T16:24:52.518Z,68.50
2018-02-17T16:27:20.268Z,68.49
2018-02-17T16:29:47.840Z,68.74
2018-02-17T16:32:15.434Z,68.65
2018-02-17T16:34:43.027Z,68.76
2018-02-17T16:37:10.593Z,68.82
2018-02-17T16:39:38.143Z,69.27
2018-02-17T16:42:06.044Z,69.95
2018-02-17T16:44:33.623Z,70.45
2018-02-17T16:47:01.202Z,70.17
2018-02-17T16:49:28.890Z,70.23
2018-02-17T16:51:56.448Z,70.33
2018-02-17T16:54:24.008Z,70.23
2018-02-17T16:56:51.584Z,70.39
2018-02-17T16:59:19.167Z,70.59
2018-02-17T17:01:46.746Z,71.08
2018-02-17T17:04:14.518Z,71.41
2018-02-17T17:06:42.137Z,71.47
2018-02-17T17:09:09.704Z,71.92
2018-02-17T17:11:37.488Z,71.96
2018-02-17T17:14:05.043Z,72.14
2018-02-17T17:16:32.613Z,71.83
2018-02-17T17:19:00.539Z,71.95
2018-02-17T17:21:28.095Z,71.93
2018-02-17T17:23:55.707Z,71.48
2018-02-17T17:26:23.497Z,71.31
2018-02-17T17:28:51.160Z,71.49
2018-02-17T17:31:18.768Z,71.68
2018-02-17T17:33:46.544Z,71.83
2018-02-17T17:36:14.173Z,71.71
2018-02-17T17:38:41.777Z,72.15
2018-02-17T17:41:09.435Z,72.12
2018-02-17T17:43:37.020Z,71.91
2018-02-17T17:46:04.605Z,71.57
2018-02-17T17:48:32.319Z,71.56
2018-02-17T17:50:59.953Z,71.43
2018-02-17T17:53:27.554Z,71.77
2018-02-17T17:55:55.172Z,72.05
2018-02-17T17:58:22.754Z,71.49
2018-02-17T18:00:50.421Z,71.82
2018-02-17T18:03:18.243Z,72.02
2018-02-17T18:05:45.819Z,71.66
2018-02-17T18:08:13.423Z,71.94
2018-02-17T18:10:41.320Z,72.56
2018-02-17T18:13:08.931Z,73.37
2018-02-17T18:15:36.505Z,73.18
2018-02-17T18:18:04.435Z,74.00
2018-02-17T18:20:31.996Z,74.96
2018-02-17T18:22:59.561Z,75.06
2018-02-17T18:25:27.322Z,74.92
2018-02-17T18:27:54.884Z,75.14
2018-02-17T18:30:22.458Z,74.51
2018-02-17T18:32:50.411Z,74.03
2018-02-17T18:35:17.972Z,74.95
2018-02-17T18:37:45.525Z,75.74
2018-02-17T18:40:13.351Z,75.67
2018-02-17T18:42:40.906Z,75.72
2018-02-17T18:45:08.475Z,75.43
2018-02-17T18:47:36.095Z,75.75
2018-02-17T18:50:03.749Z,75.66
2018-02-17T18:52:31.316Z,75.57
2018-02-17T18:54:59.003Z,75.37
2018-02-17T18:57:26.550Z,75.60
2018-02-17T18:59:54.110Z,75.80
2018-02-17T19:02:21.871Z,75.89
2018-02-17T19:04:49.520Z,76.24
2018-02-17T19:07:17.109Z,76.15
2018-02-17T19:09:44.894Z,76.14
2018-02-17T19:12:12.519Z,76.33
2018-02-17T19:14:40.147Z,76.97
2018-02-17T19:17:07.763Z,77.47
2018-02-17T19:19:35.339Z,77.56
2018-02-17T19:22:02.908Z,77.73
2018-02-17T19:24:30.676Z,76.92
2018-02-17T19:26:58.236Z,77.05
2018-02-17T19:29:26.482Z,77.02
2018-02-17T19:31:54.136Z,78.27
2018-02-17T19:34:21.707Z,78.96
2018-02-17T19:36:49.268Z,78.62
2018-02-17T19:39:16.953Z,78.72
2018-02-17T19:41:44.518Z,78.41
2018-02-17T19:44:12.081Z,78.21
2018-02-17T19:46:39.998Z,78.21
2018-02-17T19:49:07.570Z,78.24
2018-02-17T19:51:35.141Z,77.88
2018-02-17T19:54:02.740Z,78.48
2018-02-17T19:56:30.350Z,79.19
2018-02-17T19:58:57.918Z,78.39
2018-02-17T20:01:25.646Z,79.04
2018-02-17T20:03:53.241Z,79.30
2018-02-17T20:06:20.879Z,79.74
2018-02-17T20:08:48.581Z,80.19
2018-02-17T20:11:16.171Z,80.70
2018-02-17T20:13:43.815Z,80.95
2018-02-17T20:16:11.581Z,81.19
2018-02-17T20:18:39.146Z,81.19
2018-02-17T20:21:06.708Z,80.40
2018-02-17T20:23:34.613Z,80.45
2018-02-17T20:26:02.201Z,80.43
2018-02-17T20:28:29.803Z,81.44
2018-02-17T20:30:57.555Z,81.91
2018-02-17T20:33:25.129Z,82.53
2018-02-17T20:35:52.708Z,82.66
2018-02-17T20:38:20.358Z,82.48
2018-02-17T20:40:47.936Z,82.57
2018-02-17T20:43:15.517Z,81.29
2018-02-17T20:45:43.275Z,81.27
2018-02-17T20:48:10.872Z,82.11
2018-02-17T20:50:38.459Z,83.32
2018-02-17T20:53:06.162Z,83.79
2018-02-17T20:55:33.718Z,83.27
2018-02-17T20:58:01.342Z,83.00
2018-02-17T21:00:28.956Z,82.28
2018-02-17T21:02:56.541Z,82.22
2018-02-17T21:05:24.111Z,82.92
2018-02-17T21:07:51.944Z,83.75
2018-02-17T21:10:19.512Z,83.74
2018-02-17T21:12:47.094Z,83.50
2018-02-17T21:15:14.716Z,83.41
2018-02-17T21:17:42.300Z,83.89
2018-02-17T21:20:09.881Z,84.42
2018-02-17T21:22:37.644Z,84.50
2018-02-17T21:25:05.214Z,84.76
2018-02-17T21:27:32.791Z,85.58
2018-02-17T21:30:00.393Z,85.68
2018-02-17T21:32:27.958Z,85.78
2018-02-17T21:34:55.536Z,85.64
2018-02-17T21:37:23.432Z,85.38
2018-02-17T21:39:51.002Z,84.73
2018-02-17T21:42:18.565Z,85.54
2018-02-17T21:44:46.464Z,86.18
2018-02-17T21:47:14.030Z,86.43
2018-02-17T21:49:41.601Z,85.61
2018-02-17T21:52:09.407Z,84.24
2018-02-17T21:54:37.000Z,84.51
2018-02-17T21:57:04.559Z,84.97
2018-02-17T21:59:32.251Z,85.21
2018-02-17T22:01:59.795Z,85.93
2018-02-17T22:04:27.347Z,86.32
2018-02-17T22:06:54.955Z,86.39
2018-02-17T22:09:22.527Z,85.92
2018-02-17T22:11:50.079Z,86.41
2018-02-17T22:14:17.657Z,86.70
2018-02-17T22:16:45.210Z,87.17
2018-02-17T22:19:12.783Z,87.35
2018-02-17T22:21:40.371Z,86.67
2018-02-17T22:24:07.929Z,86.81
2018-02-17T22:26:35.511Z,87.46
2018-02-17T22:29:03.276Z,87.53
2018-02-17T22:31:30.848Z,87.49
2018-02-17T22:33:58.411Z,87.56
2018-02-17T22:36:26.018Z,87.65
2018-02-17T22:38:53.610Z,87.26
2018-02-17T22:41:21.166Z,87.29
2018-02-17T22:43:48.898Z,86.83
2018-02-17T22:46:16.462Z,86.25
2018-02-17T22:48:44.030Z,85.94
2018-02-17T22:51:11.872Z,86.29
2018-02-17T22:53:39.414Z,86.26
2018-02-17T22:56:06.965Z,86.50
2018-02-17T22:58:34.702Z,86.92
2018-02-17T23:01:02.315Z,86.34
2018-02-17T23:03:29.875Z,85.20
2018-02-17T23:05:57.477Z,85.24
2018-02-17T23:08:25.043Z,86.04
2018-02-17T23:10:52.588Z,86.07
2018-02-17T23:13:20.194Z,85.83
2018-02-17T23:15:47.762Z,86.77
2018-02-17T23:18:15.326Z,87.03
2018-02-17T23:20:42.941Z,86.83
2018-02-17T23:23:10.619Z,86.13
2018-02-17T23:25:38.192Z,85.24
2018-02-17T23:28:06.095Z,85.53
2018-02-17T23:30:33.647Z,86.63
2018-02-17T23:33:01.210Z,86.84
2018-02-17T23:35:28.950Z,87.07
2018-02-17T23:37:56.489Z,87.13
2018-02-17T23:40:24.046Z,86.73
2018-02-17T23:42:51.936Z,87.20
2018-02-17T23:45:19.482Z,87.42
2018-02-17T23:47:47.034Z,86.58
2018-02-17T23:50:14.912Z,87.31
2018-02-17T23:52:42.461Z,87.72
2018-02-17T23:55:10.012Z,87.90
2018-02-17T23:57:37.623Z,88.06
